createdAt,value
2022-12-15T00:00:07.424Z,0
2022-12-15T00:03:08.130Z,0
2022-12-15T00:06:07.385Z,0
2022-12-15T00:09:14.349Z,0
2022-12-15T00:12:07.306Z,0
2022-12-15T00:15:07.374Z,0
2022-12-15T00:18:07.365Z,0
2022-12-15T00:21:07.325Z,0
2022-12-15T00:24:07.382Z,0
2022-12-15T00:27:07.329Z,0
2022-12-15T00:30:07.378Z,0
2022-12-15T00:33:07.319Z,0
2022-12-15T00:36:07.417Z,0
2022-12-15T00:39:10.926Z,0
2022-12-15T00:42:07.361Z,0
2022-12-15T00:45:07.311Z,0
2022-12-15T00:48:07.381Z,0
2022-12-15T00:51:07.321Z,0
2022-12-15T00:54:07.350Z,0
2022-12-15T00:57:07.355Z,0
2022-12-15T01:00:07.541Z,0
2022-12-15T01:03:08.454Z,0
2022-12-15T01:06:07.357Z,0
2022-12-15T01:09:07.327Z,0
2022-12-15T01:12:07.334Z,0
2022-12-15T01:15:07.361Z,0
2022-12-15T01:18:07.377Z,0
2022-12-15T01:21:07.382Z,0
2022-12-15T01:24:07.364Z,0
2022-12-15T01:27:07.348Z,0
2022-12-15T01:30:07.429Z,0
2022-12-15T01:33:07.378Z,0
2022-12-15T01:36:07.356Z,0
2022-12-15T01:39:07.417Z,0
2022-12-15T01:42:07.401Z,0
2022-12-15T01:45:07.361Z,0
2022-12-15T01:48:07.373Z,0
2022-12-15T01:51:07.449Z,0
2022-12-15T01:54:07.376Z,0
2022-12-15T01:57:07.397Z,0
2022-12-15T02:00:07.366Z,0
2022-12-15T02:03:08.025Z,0
2022-12-15T02:06:07.426Z,0
2022-12-15T02:09:07.385Z,0
2022-12-15T02:12:07.387Z,0
2022-12-15T02:15:07.444Z,0
2022-12-15T02:18:07.341Z,0
2022-12-15T02:21:07.382Z,0
2022-12-15T02:24:07.350Z,0
2022-12-15T02:27:07.376Z,0
2022-12-15T02:30:07.332Z,0
2022-12-15T02:33:07.326Z,0
2022-12-15T02:36:07.383Z,0
2022-12-15T02:39:07.364Z,0
2022-12-15T02:42:07.349Z,0
2022-12-15T02:45:07.335Z,0
2022-12-15T02:48:07.419Z,0
2022-12-15T02:51:07.280Z,0
2022-12-15T02:54:07.367Z,0
2022-12-15T02:57:07.543Z,0
2022-12-15T03:00:07.386Z,0
2022-12-15T03:03:08.533Z,0
2022-12-15T03:06:07.349Z,0
2022-12-15T03:09:07.331Z,0
2022-12-15T03:12:07.303Z,0
2022-12-15T03:15:07.478Z,0
2022-12-15T03:18:07.368Z,0
2022-12-15T03:21:07.609Z,0
2022-12-15T03:24:07.387Z,0
2022-12-15T03:27:07.346Z,0
2022-12-15T03:30:07.438Z,0
2022-12-15T03:33:07.318Z,0
2022-12-15T03:36:07.350Z,0
2022-12-15T03:39:07.353Z,0
2022-12-15T03:42:07.322Z,0
2022-12-15T03:45:07.368Z,0
2022-12-15T03:48:07.367Z,0
2022-12-15T03:51:07.310Z,0
2022-12-15T03:54:07.411Z,0
2022-12-15T03:57:07.388Z,0
2022-12-15T04:00:07.356Z,0
2022-12-15T04:03:08.044Z,0
2022-12-15T04:06:07.362Z,0
2022-12-15T04:09:07.342Z,0
2022-12-15T04:12:07.309Z,0
2022-12-15T04:15:07.380Z,0
2022-12-15T04:18:07.333Z,0
2022-12-15T04:21:07.332Z,0
2022-12-15T04:24:07.339Z,0
2022-12-15T04:27:07.398Z,0
2022-12-15T04:30:07.386Z,0
2022-12-15T04:33:07.354Z,0
2022-12-15T04:36:07.403Z,0
2022-12-15T04:39:07.297Z,0
2022-12-15T04:42:07.620Z,0
2022-12-15T04:45:07.346Z,0
2022-12-15T04:48:07.337Z,0
2022-12-15T04:51:07.311Z,0
2022-12-15T04:54:07.491Z,0
2022-12-15T04:57:07.334Z,0
2022-12-15T05:00:07.502Z,0
2022-12-15T05:03:07.387Z,0
2022-12-15T05:06:07.310Z,0
2022-12-15T05:09:07.465Z,0
2022-12-15T05:12:07.363Z,0
2022-12-15T05:15:07.392Z,0
2022-12-15T05:18:07.319Z,0
2022-12-15T05:21:07.317Z,0
2022-12-15T05:24:07.324Z,0
2022-12-15T05:27:07.535Z,0
2022-12-15T05:30:07.386Z,0
2022-12-15T05:33:07.378Z,0
2022-12-15T05:36:07.329Z,0
2022-12-15T05:39:07.375Z,0
2022-12-15T05:42:07.568Z,0
2022-12-15T05:45:07.358Z,0
2022-12-15T05:48:07.330Z,0
2022-12-15T05:51:07.353Z,0
2022-12-15T05:54:07.374Z,0
2022-12-15T05:57:07.314Z,0
2022-12-15T06:00:07.367Z,0
2022-12-15T06:03:07.761Z,0
2022-12-15T06:06:07.394Z,0
2022-12-15T06:09:07.295Z,0
2022-12-15T06:12:07.341Z,0
2022-12-15T06:15:07.361Z,0
2022-12-15T06:18:07.340Z,0
2022-12-15T06:21:07.386Z,0
2022-12-15T06:24:07.421Z,0
2022-12-15T06:27:07.430Z,0
2022-12-15T06:30:07.371Z,0
2022-12-15T06:33:07.371Z,0
2022-12-15T06:36:07.328Z,0
2022-12-15T06:39:07.445Z,0
2022-12-15T06:42:07.336Z,3
2022-12-15T06:45:07.433Z,3
2022-12-15T06:48:08.625Z,7
2022-12-15T06:51:10.859Z,10
2022-12-15T06:54:07.348Z,17
2022-12-15T06:57:07.355Z,27
2022-12-15T07:00:07.536Z,37
2022-12-15T07:03:08.957Z,53
2022-12-15T07:06:07.375Z,77
2022-12-15T07:09:07.493Z,107
2022-12-15T07:12:07.394Z,143
2022-12-15T07:15:07.343Z,190
2022-12-15T07:18:07.362Z,237
2022-12-15T07:21:07.322Z,297
2022-12-15T07:24:10.622Z,367
2022-12-15T07:27:07.360Z,443
2022-12-15T07:30:08.055Z,530
2022-12-15T07:33:07.970Z,630
2022-12-15T07:36:07.377Z,737
2022-12-15T07:39:09.249Z,833
2022-12-15T07:42:07.378Z,920
2022-12-15T07:45:07.659Z,1013
2022-12-15T07:48:07.405Z,1103
2022-12-15T07:51:24.248Z,1190
2022-12-15T07:54:07.429Z,1280
2022-12-15T07:57:07.440Z,1370
2022-12-15T08:00:07.644Z,1453
2022-12-15T08:03:08.079Z,1533
2022-12-15T08:06:11.226Z,1613
2022-12-15T08:09:07.486Z,1693
2022-12-15T08:12:07.372Z,1760
2022-12-15T08:15:07.414Z,1843
2022-12-15T08:18:07.433Z,1907
2022-12-15T08:21:07.339Z,1967
2022-12-15T08:24:07.521Z,2033
2022-12-15T08:27:07.446Z,2097
2022-12-15T08:30:07.450Z,2157
2022-12-15T08:33:07.421Z,2227
2022-12-15T08:36:07.301Z,2280
2022-12-15T08:39:07.320Z,2347
2022-12-15T08:42:07.374Z,2427
2022-12-15T08:45:07.371Z,2490
2022-12-15T08:48:07.371Z,2580
2022-12-15T08:51:07.320Z,2653
2022-12-15T08:54:07.310Z,2760
2022-12-15T08:57:07.366Z,2833
2022-12-15T09:00:07.452Z,2890
2022-12-15T09:03:07.281Z,2940
2022-12-15T09:06:07.398Z,3017
2022-12-15T09:09:07.352Z,3070
2022-12-15T09:12:07.423Z,3143
2022-12-15T09:15:07.346Z,3177
2022-12-15T09:18:07.462Z,3267
2022-12-15T09:21:07.511Z,4643
2022-12-15T09:24:07.782Z,5890
2022-12-15T09:27:07.430Z,5080
2022-12-15T09:30:07.482Z,7093
2022-12-15T09:33:07.371Z,6037
2022-12-15T09:36:07.546Z,5027
2022-12-15T09:39:07.459Z,4297
2022-12-15T09:42:07.473Z,5733
2022-12-15T09:45:08.146Z,6537
2022-12-15T09:48:07.457Z,16367
2022-12-15T09:51:07.362Z,19980
2022-12-15T09:54:09.210Z,20800
2022-12-15T09:57:07.479Z,19253
2022-12-15T10:00:07.639Z,19110
2022-12-15T10:03:08.471Z,19070
2022-12-15T10:06:35.300Z,19240
2022-12-15T10:09:07.385Z,19417
2022-12-15T10:12:07.462Z,19663
2022-12-15T10:15:07.359Z,19547
2022-12-15T10:18:07.444Z,19587
2022-12-15T10:21:07.385Z,19713
2022-12-15T10:24:07.690Z,19767
2022-12-15T10:27:07.419Z,19870
2022-12-15T10:30:08.131Z,19853
2022-12-15T10:33:07.435Z,19990
2022-12-15T10:36:07.537Z,20120
2022-12-15T10:39:07.452Z,20077
2022-12-15T10:42:07.460Z,20180
2022-12-15T10:45:07.505Z,20197
2022-12-15T10:48:07.373Z,20307
2022-12-15T10:51:07.436Z,20103
2022-12-15T10:54:07.344Z,20177
2022-12-15T10:57:07.426Z,20240
2022-12-15T11:00:07.539Z,19630
2022-12-15T11:03:09.581Z,19767
2022-12-15T11:06:07.385Z,19723
2022-12-15T11:09:07.433Z,19717
2022-12-15T11:12:11.865Z,19657
2022-12-15T11:15:07.460Z,19547
2022-12-15T11:18:07.452Z,19640
2022-12-15T11:21:07.489Z,19423
2022-12-15T11:24:07.418Z,19440
2022-12-15T11:27:07.344Z,19377
2022-12-15T11:30:07.640Z,19297
2022-12-15T11:33:07.487Z,19210
2022-12-15T11:36:07.537Z,19197
2022-12-15T11:39:07.929Z,19053
2022-12-15T11:42:07.472Z,19197
2022-12-15T11:45:07.490Z,19210
2022-12-15T11:48:07.472Z,19053
2022-12-15T11:51:07.418Z,18670
2022-12-15T11:54:07.493Z,18790
2022-12-15T11:57:07.458Z,18800
2022-12-15T12:00:07.538Z,7457
2022-12-15T12:03:07.805Z,4140
2022-12-15T12:06:07.492Z,4080
2022-12-15T12:09:07.447Z,4057
2022-12-15T12:12:07.415Z,4027
2022-12-15T12:15:07.430Z,3993
2022-12-15T12:18:07.414Z,3970
2022-12-15T12:21:07.459Z,3957
2022-12-15T12:24:07.688Z,3967
2022-12-15T12:27:07.461Z,3947
2022-12-15T12:30:07.667Z,3897
2022-12-15T12:33:07.495Z,3853
2022-12-15T12:36:07.699Z,3837
2022-12-15T12:39:07.615Z,3803
2022-12-15T12:42:07.505Z,3773
2022-12-15T12:45:07.530Z,3737
2022-12-15T12:48:07.697Z,3687
2022-12-15T12:51:07.449Z,3647
2022-12-15T12:54:07.432Z,3600
2022-12-15T12:57:07.453Z,3567
2022-12-15T13:00:07.500Z,3533
2022-12-15T13:03:07.601Z,3530
2022-12-15T13:06:07.405Z,3517
2022-12-15T13:09:07.473Z,3497
2022-12-15T13:15:07.398Z,3443
2022-12-15T13:18:07.486Z,3433
2022-12-15T13:21:07.380Z,3417
2022-12-15T13:24:07.404Z,3393
2022-12-15T13:27:07.416Z,3583
2022-12-15T13:30:07.452Z,3460
2022-12-15T13:33:07.492Z,3310
2022-12-15T13:36:07.516Z,3273
2022-12-15T13:39:07.452Z,3237
2022-12-15T13:45:07.558Z,3163
2022-12-15T13:48:07.485Z,3113
2022-12-15T13:51:07.423Z,3080
2022-12-15T13:54:07.533Z,7583
2022-12-15T13:57:07.384Z,9140
2022-12-15T14:00:07.465Z,8603
2022-12-15T14:03:07.782Z,7953
2022-12-15T14:06:07.404Z,7760
2022-12-15T14:09:07.415Z,7310
2022-12-15T14:12:07.445Z,6537
2022-12-15T14:15:07.475Z,5983
2022-12-15T14:18:07.396Z,4637
2022-12-15T14:21:07.474Z,4993
2022-12-15T14:27:07.447Z,2213
2022-12-15T14:30:07.831Z,1763
2022-12-15T14:33:07.437Z,1647
2022-12-15T14:36:07.475Z,1510
2022-12-15T14:39:07.438Z,1380
2022-12-15T14:42:07.467Z,1263
2022-12-15T14:45:07.460Z,1147
2022-12-15T14:51:07.397Z,917
2022-12-15T14:54:07.532Z,803
2022-12-15T14:57:07.381Z,693
2022-12-15T15:00:07.481Z,590
2022-12-15T15:03:19.287Z,493
2022-12-15T15:06:07.729Z,407
2022-12-15T15:09:07.367Z,327
2022-12-15T15:12:07.357Z,257
2022-12-15T15:15:07.509Z,197
2022-12-15T15:18:07.332Z,147
2022-12-15T15:21:07.375Z,103
2022-12-15T15:24:07.470Z,73
2022-12-15T15:27:07.855Z,47
2022-12-15T15:30:07.418Z,30
2022-12-15T15:33:07.386Z,20
2022-12-15T15:36:07.400Z,10
2022-12-15T15:39:07.361Z,7
2022-12-15T15:42:07.442Z,3
2022-12-15T15:45:07.568Z,3
2022-12-15T15:48:07.374Z,0
2022-12-15T15:51:07.308Z,0
2022-12-15T15:54:07.355Z,0
2022-12-15T15:57:07.377Z,0
2022-12-15T16:00:07.461Z,0
2022-12-15T16:03:08.766Z,0
2022-12-15T16:06:07.350Z,0
2022-12-15T16:09:07.383Z,0
2022-12-15T16:12:07.415Z,0
2022-12-15T16:15:07.382Z,0
2022-12-15T16:18:07.394Z,0
2022-12-15T16:21:07.300Z,0
2022-12-15T16:24:07.388Z,0
2022-12-15T16:27:07.364Z,0
2022-12-15T16:30:07.530Z,0
2022-12-15T16:33:07.380Z,0
2022-12-15T16:36:07.361Z,0
2022-12-15T16:39:07.400Z,0
2022-12-15T16:42:07.367Z,0
2022-12-15T16:45:07.309Z,0
2022-12-15T16:48:07.730Z,0
2022-12-15T16:51:07.330Z,0
2022-12-15T16:54:07.339Z,0
2022-12-15T16:57:07.345Z,0
2022-12-15T17:00:07.465Z,0
2022-12-15T17:03:08.847Z,0
2022-12-15T17:06:07.392Z,0
2022-12-15T17:09:07.345Z,0
2022-12-15T17:12:07.528Z,0
2022-12-15T17:15:07.324Z,0
2022-12-15T17:18:07.349Z,0
2022-12-15T17:21:07.338Z,0
2022-12-15T17:24:07.490Z,0
2022-12-15T17:27:07.334Z,0
2022-12-15T17:30:07.548Z,0
2022-12-15T17:33:07.349Z,0
2022-12-15T17:36:07.313Z,0
2022-12-15T17:39:07.398Z,0
2022-12-15T17:42:09.969Z,0
2022-12-15T17:45:07.947Z,0
2022-12-15T17:48:07.347Z,0
2022-12-15T17:51:07.343Z,0
2022-12-15T17:54:07.318Z,0
2022-12-15T17:57:07.325Z,0
2022-12-15T18:00:07.541Z,0
2022-12-15T18:03:08.653Z,0
2022-12-15T18:06:07.387Z,0
2022-12-15T18:09:07.324Z,0
2022-12-15T18:12:07.416Z,0
2022-12-15T18:15:07.347Z,0
2022-12-15T18:18:07.345Z,0
2022-12-15T18:21:07.343Z,0
2022-12-15T18:24:07.369Z,0
2022-12-15T18:27:07.372Z,0
2022-12-15T18:30:07.584Z,0
2022-12-15T18:33:07.375Z,0
2022-12-15T18:36:07.335Z,0
2022-12-15T18:39:07.402Z,0
2022-12-15T18:42:07.338Z,0
2022-12-15T18:45:07.481Z,0
2022-12-15T18:48:07.418Z,0
2022-12-15T18:51:07.288Z,0
2022-12-15T18:54:07.350Z,0
2022-12-15T18:57:07.303Z,0
2022-12-15T19:00:07.566Z,0
2022-12-15T19:03:08.188Z,0
2022-12-15T19:06:07.340Z,0
2022-12-15T19:09:07.252Z,0
2022-12-15T19:12:07.350Z,0
2022-12-15T19:15:07.368Z,0
2022-12-15T19:18:07.424Z,0
2022-12-15T19:21:07.360Z,0
2022-12-15T19:24:07.334Z,0
2022-12-15T19:27:07.393Z,0
2022-12-15T19:30:07.498Z,0
2022-12-15T19:33:07.434Z,0
2022-12-15T19:36:07.350Z,0
2022-12-15T19:39:07.339Z,0
2022-12-15T19:42:13.778Z,0
2022-12-15T19:45:07.357Z,0
2022-12-15T19:48:07.368Z,0
2022-12-15T19:51:07.348Z,0
2022-12-15T19:54:07.328Z,0
2022-12-15T19:57:07.354Z,0
2022-12-15T20:00:07.431Z,0
2022-12-15T20:03:07.986Z,0
2022-12-15T20:06:07.363Z,0
2022-12-15T20:09:07.347Z,0
2022-12-15T20:12:07.313Z,0
2022-12-15T20:15:11.164Z,0
2022-12-15T20:18:07.361Z,0
2022-12-15T20:21:07.341Z,0
2022-12-15T20:24:07.478Z,0
2022-12-15T20:27:14.133Z,0
2022-12-15T20:30:07.392Z,0
2022-12-15T20:33:07.376Z,0
2022-12-15T20:36:07.379Z,0
2022-12-15T20:39:07.357Z,0
2022-12-15T20:42:07.383Z,0
2022-12-15T20:45:07.331Z,0
2022-12-15T20:48:07.375Z,0
2022-12-15T20:51:15.865Z,0
2022-12-15T20:54:07.391Z,0
2022-12-15T20:57:07.375Z,0
2022-12-15T21:00:07.461Z,0
2022-12-15T21:03:08.185Z,0
2022-12-15T21:06:07.378Z,0
2022-12-15T21:09:07.340Z,0
2022-12-15T21:12:15.848Z,0
2022-12-15T21:15:07.430Z,0
2022-12-15T21:21:07.338Z,0
2022-12-15T21:24:07.367Z,0
2022-12-15T21:27:07.306Z,0
2022-12-15T21:30:07.487Z,0
2022-12-15T21:33:07.332Z,0
2022-12-15T21:36:07.421Z,0
2022-12-15T21:39:07.324Z,0
2022-12-15T21:42:07.347Z,0
2022-12-15T21:45:07.722Z,0
2022-12-15T21:48:07.546Z,0
2022-12-15T21:51:07.639Z,0
2022-12-15T21:54:07.393Z,0
2022-12-15T21:57:07.454Z,0
2022-12-15T22:00:07.374Z,0
2022-12-15T22:03:07.892Z,0
2022-12-15T22:06:07.390Z,0
2022-12-15T22:09:07.315Z,0
2022-12-15T22:12:07.355Z,0
2022-12-15T22:15:07.405Z,0
2022-12-15T22:18:07.455Z,0
2022-12-15T22:21:07.293Z,0
2022-12-15T22:24:07.376Z,0
2022-12-15T22:27:07.349Z,0
2022-12-15T22:30:07.307Z,0
2022-12-15T22:33:07.324Z,0
2022-12-15T22:36:07.358Z,0
2022-12-15T22:39:15.188Z,0
2022-12-15T22:42:07.369Z,0
2022-12-15T22:45:07.341Z,0
2022-12-15T22:48:07.337Z,0
2022-12-15T22:51:07.331Z,0
2022-12-15T22:54:07.345Z,0
2022-12-15T22:57:07.322Z,0
2022-12-15T23:00:08.168Z,0
2022-12-15T23:03:07.342Z,0
2022-12-15T23:06:07.362Z,0
2022-12-15T23:09:07.469Z,0
2022-12-15T23:12:07.375Z,0
2022-12-15T23:15:07.382Z,0
2022-12-15T23:18:07.395Z,0
2022-12-15T23:21:07.407Z,0
2022-12-15T23:24:07.332Z,0
2022-12-15T23:27:07.399Z,0
2022-12-15T23:30:07.353Z,0
2022-12-15T23:33:07.323Z,0
2022-12-15T23:36:07.333Z,0
2022-12-15T23:39:07.400Z,0
2022-12-15T23:42:07.409Z,0
2022-12-15T23:45:07.878Z,0
2022-12-15T23:48:07.307Z,0
2022-12-15T23:51:07.348Z,0
2022-12-15T23:54:07.395Z,0
2022-12-15T23:57:07.325Z,0
